6CO4 weather

Hat-Field STOLport
Fort Collins, Colorado, United States

Public forecast

Using degrees Fahrenheit for public forecast. Weather courtesy of forecast.io.

METAR (pilot weather report)

Closest report is Northern Colorado Regional Airport, 3.5 nm (6.6 km) S. Retrieved 2019/08/21 06:56 UTC (6 minutes ago):

KFNL 210656Z AUTO 04010KT 10SM BKN023 22/18 A3019 RMK AO2 SLP143 T02170178 403720161

TAF (pilot weather forecast)

Closest forecast is Rocky Mountain Metropolitan Airport, 36.5 nm (67.6 km) S. Retrieved 2019/08/21 06:30 UTC (32 minutes ago):

TAF KBJC 210529Z 2106/2206 24006KT P6SM SCT120 FM210800 36010KT P6SM SCT050 BKN100 FM211100 03008KT P6SM SCT030 BKN100 TEMPO 2111/2115 3SM BR BKN015 FM211500 05010KT P6SM SCT050 BKN080 FM211800 09012G20KT P6SM BKN050 TEMPO 2122/2202 VRB20G35KT -TSRA BKN050CB FM220300 30010KT P6SM BKN060